Portada
METAR-TAF:

METAR-TAF

Aeropuertos :

Aeropuerto de Río Cuarto

Río Cuarto, Argentina

latitud: 33-07S, longitud: 064-14W, altitud: 420 m

Observación

El informe se hizo hace 57 minutos, a las 00:00 UTC
Viento 9 kt del norte-noreste
Temperatura 22°C
Humedad 78%
Presión 1016 hPa
Visibilidad 10 km o más
sin nubes por debajo de 1500 m y sin presencia de cumulonimbus.

METAR: SAOC 300000Z 02009KT CAVOK 22/18 Q1016

Hora: 21:57 (00:57 UTC)


TAF: falta

Observaciones y pronósticos meteorológicos de más de 4000 aeropuertos (mensajes METAR y TAF).

Los puntos amarillos y rojos representan las estaciones disponibles.

Ponga el ratón en el punto deseado para ver el nombre de la estación.

Haga clic para ver las observaciones y los pronósticos meteorológicos.

Para cambiar el mapa : haga clic en los botones verdes con una cruz de color negro para hacer un zoom, en el botón verde con un guión para alejar o en las flechas verdes para mapas adyacentes.


METAR-TAF: